Nearby METAR Reports

 

KMGE - Dobbins Airforce Base
Updated: Wed, 20-Sep-2017 9:56am EDT
Clear
Clear
 Wind from W
Wind: W 2 mph , 4 km/h
Temperature: 77°F , 25°C
Dew Point: 66°F , 19°C
Humidity: 69%
Barometer: 30.08 inHg , 1018.6 hPa
Clouds: Clear
Visibility: 7 miles , 11 km
2017/09/20 13:56 KMGE 201356Z 28002KT 7SM CLR 25/19 A3008 RMK AO2A SLP178 T02470191 $
KRYY - MARIETTA MCCOLUM
Updated: Wed, 20-Sep-2017 9:51am EDT
Clear
Clear
 Wind from calm
Wind: Calm
Temperature: 73°F , 23°C
Dew Point: 68°F , 20°C
Humidity: 83%
Barometer: 30.09 inHg , 1019 hPa
Clouds: Clear
Visibility: 7 miles , 11 km
2017/09/20 13:51 KRYY 201351Z 00000KT 7SM CLR 23/20 A3009 RMK AO2 SLP189 T02280200
 
KFTY - Atlanta Fulton
Updated: Wed, 20-Sep-2017 9:53am EDT
Clear
Clear
 Wind from calm
Wind: Calm
Temperature: 75°F , 24°C
Dew Point: 70°F , 21°C
Humidity: 83%
Barometer: 30.07 inHg , 1018.3 hPa
Clouds: Clear
Visibility: 10 miles , 16 km
2017/09/20 13:53 KFTY 201353Z 00000KT 10SM CLR 24/21 A3007 RMK AO2 SLP173 T02440211
KATL - Atlanta Airport
Updated: Wed, 20-Sep-2017 9:52am EDT
Clear
Clear
 Wind from NW
Wind: NW 7 mph , 11 km/h
Temperature: 79°F , 26°C
Dew Point: 68°F , 20°C
Humidity: 70%
Barometer: 30.08 inHg , 1018.6 hPa
Clouds: Clear
Visibility: 10 miles , 16 km
2017/09/20 13:52 KATL 201352Z 32006KT 10SM CLR 26/20 A3008 RMK AO2 SLP174 T02560200